This is the latest recevied weather packets stored in our database for station/object SQ5TM-1. If no packets are shown the sender has not sent any weather packets the latest 1 day(s).
| Time | Temp. | Humidity | Pressure | Rain* | Wind** | Luminosity | Snow |
|---|---|---|---|---|---|---|---|
| 1778047963 | 16.11° C | 59% | 993 hPa | - | - | 0 W/m² | - |
| 1778047038 | 15.56° C | 61% | 994 hPa | - | - | 0 W/m² | - |
| 1778046114 | 15° C | 65% | 993 hPa | - | - | 0 W/m² | - |
| 1778045190 | 14.44° C | 70% | 994 hPa | - | - | 0 W/m² | - |
| 1778044266 | 13.89° C | 74% | 994 hPa | - | - | 0 W/m² | - |
| 1778044078 | 13.89° C | 75% | 994 hPa | - | - | 0 W/m² | - |
| 1778043154 | 13.33° C | 76% | 993 hPa | - | - | 0 W/m² | - |
| 1778041305 | 12.78° C | 77% | 993 hPa | - | - | 0 W/m² | - |
| 1778040380 | 12.78° C | 77% | 994 hPa | - | - | 0 W/m² | - |
| 1778039456 | 12.78° C | 77% | 994 hPa | - | - | 0 W/m² | - |
| 1778039158 | 12.78° C | 76% | 994 hPa | - | - | 0 W/m² | - |
| 1778038234 | 12.22° C | 75% | 994 hPa | - | - | 0 W/m² | - |
| 1778037309 | 12.22° C | 73% | 994 hPa | - | - | 0 W/m² | - |
| 1778036385 | 12.22° C | 73% | 994 hPa | - | - | 0 W/m² | - |
| 1778034536 | 12.22° C | 72% | 994 hPa | - | - | 0 W/m² | - |
| 1778033508 | 12.78° C | 70% | 994 hPa | - | - | 0 W/m² | - |
| 1778032584 | 12.78° C | 70% | 994 hPa | - | - | 0 W/m² | - |
| 1778031660 | 12.78° C | 70% | 994 hPa | - | - | 0 W/m² | - |
| 1778030736 | 12.78° C | 70% | 994 hPa | - | - | 0 W/m² | - |
| 1778028887 | 13.33° C | 69% | 994 hPa | - | - | 0 W/m² | - |
| 1778027962 | 13.33° C | 70% | 994 hPa | - | - | 0 W/m² | - |
| 1778027038 | 14.44° C | 70% | 994 hPa | - | - | 0 W/m² | - |
| 1778026114 | 14.44° C | 72% | 994 hPa | - | - | 0 W/m² | - |
| 1778022416 | 15.56° C | 71% | 994 hPa | - | - | 0 W/m² | - |
* Rain since midnight (hover to see other rain measurements)
** Current wind speed in m/s (hover to see current wind gust speed)